Monday, June 24, 2019, 7:45 PM EDT
Back to Local

KBLM, Belmar-farmingdale

Location: Farmingdale, NJ, United States Lat: 40.183
Local Time: 7:45 PM EDT (23:45 GMT) Lon: -74.133
Time Zone: US/Eastern Elev: 157 ft

Show me the last for .
Show Decoded

2019-06-24 18:56 METAR KBLM 242256Z AUTO 15006KT 10SM CLR 26/21 A2985 RMK AO2 SLP107 T02560206 =
2019-06-24 17:56 METAR KBLM 242156Z AUTO 15006KT 10SM CLR 26/20 A2986 RMK AO2 SLP112 T02610200 =
2019-06-24 16:56 METAR KBLM 242056Z AUTO 12007KT 10SM CLR 27/19 A2987 RMK AO2 SLP113 T02720194
                 58006 =
2019-06-24 15:56 METAR KBLM 241956Z AUTO 17005KT 10SM CLR 28/17 A2987 RMK AO2 SLP115 T02780172 =
2019-06-24 14:56 METAR KBLM 241856Z AUTO 14005KT 10SM CLR 26/17 A2989 RMK AO2 SLP120 T02610167 =
2019-06-24 13:56 METAR KBLM 241756Z AUTO 22007KT 10SM CLR 30/13 A2988 RMK AO2 SLP118 T03000128
                 10300 20222 58009 =
2019-06-24 12:56 METAR KBLM 241656Z AUTO 21006KT 10SM CLR 29/12 A2990 RMK AO2 SLP123 T02940122 =
2019-06-24 11:56 METAR KBLM 241556Z AUTO 27009KT 10SM CLR 28/14 A2991 RMK AO2 SLP127 T02830139 =
2019-06-24 10:56 METAR KBLM 241456Z AUTO VRB06KT 10SM CLR 28/15 A2991 RMK AO2 SLP127 T02780150
                 56004 =
2019-06-24 09:56 METAR KBLM 241356Z AUTO 24008KT 10SM CLR 26/15 A2992 RMK AO2 SLP129 T02610150 =
2019-06-24 08:56 METAR KBLM 241256Z AUTO 27006KT 10SM CLR 25/15 A2991 RMK AO2 SLP128 T02500150 =
2019-06-24 07:56 METAR KBLM 241156Z AUTO 25004KT 10SM CLR 22/16 A2992 RMK AO2 SLP131 T02220161
                 10222 20156 53005 =
2019-06-24 06:56 METAR KBLM 241056Z AUTO 24005KT 10SM CLR 18/14 A2992 RMK AO2 SLP132 T01780144 =
2019-06-24 05:56 METAR KBLM 240956Z AUTO 22004KT 10SM CLR 17/14 A2990 RMK AO2 SLP126 T01670139 =
2019-06-24 04:56 METAR KBLM 240856Z AUTO 31003KT 10SM CLR 16/14 A2991 RMK AO2 SLP127 T01610139
                 55000 =
2019-06-24 03:56 METAR KBLM 240756Z AUTO 22004KT 10SM CLR 18/14 A2989 RMK AO2 SLP122 T01780139 =
2019-06-24 02:56 METAR KBLM 240656Z AUTO 25005KT 10SM CLR 18/13 A2990 RMK AO2 SLP123 T01830133 =
2019-06-24 01:56 METAR KBLM 240556Z AUTO 25004KT 10SM CLR 19/13 A2991 RMK AO2 SLP126 T01890133
                 10256 20189 58003 =
2019-06-24 00:56 METAR KBLM 240456Z AUTO 25005KT 10SM CLR 19/13 A2991 RMK AO2 SLP128 T01940133
                 402890139 =
2019-06-23 23:56 METAR KBLM 240356Z AUTO 25005KT 10SM CLR 20/13 A2992 RMK AO2 SLP130 T02000128 =
2019-06-23 22:56 METAR KBLM 240256Z AUTO 23004KT 10SM CLR 21/13 A2992 RMK AO2 SLP129 T02110133
                 50003 =
2019-06-23 21:56 METAR KBLM 240156Z AUTO 23007KT 10SM CLR 22/13 A2992 RMK AO2 SLP129 T02220133 =
2019-06-23 20:56 METAR KBLM 240056Z AUTO 23005KT 10SM CLR 23/13 A2991 RMK AO2 SLP127 T02330133 =
2019-06-23 19:56 METAR KBLM 232356Z AUTO 24004KT 10SM CLR 26/13 A2991 RMK AO2 SLP127 T02560133
                 10289 20256 58010 =

Support USWX by starting your Amazon purchase here.